createdAt,value
2019-01-29T00:00:36.256Z,98953.20
2019-01-29T00:03:06.447Z,98956.13
2019-01-29T00:05:34.974Z,98962.02
2019-01-29T00:08:03.564Z,98954.88
2019-01-29T00:10:32.065Z,98964.10
2019-01-29T00:13:00.588Z,98964.54
2019-01-29T00:15:29.090Z,98972.52
2019-01-29T00:17:57.552Z,98969.14
2019-01-29T00:20:25.987Z,98966.23
2019-01-29T00:22:54.414Z,98974.61
2019-01-29T00:25:22.982Z,98982.58
2019-01-29T00:27:51.397Z,98982.56
2019-01-29T00:30:19.898Z,98983.83
2019-01-29T00:32:48.332Z,98991.81
2019-01-29T00:35:16.814Z,98989.70
2019-01-29T00:37:45.291Z,98988.05
2019-01-29T00:40:16.053Z,98993.48
2019-01-29T00:42:44.566Z,98988.87
2019-01-29T00:45:15.482Z,98998.08
2019-01-29T00:47:43.999Z,98999.34
2019-01-29T00:50:14.473Z,98992.20
2019-01-29T00:52:43.021Z,99001.02
2019-01-29T00:55:14.422Z,99003.53
2019-01-29T00:57:43.214Z,99004.78
2019-01-29T01:00:23.389Z,99003.13
2019-01-29T01:02:51.916Z,99006.48
2019-01-29T01:05:21.994Z,99013.17
2019-01-29T01:07:50.497Z,99014.44
2019-01-29T01:10:21.211Z,99015.27
2019-01-29T01:12:50.275Z,99021.55
2019-01-29T01:15:18.940Z,99028.68
2019-01-29T01:17:47.368Z,99026.60
2019-01-29T01:20:17.842Z,99030.38
2019-01-29T01:22:51.068Z,99032.04
2019-01-29T01:25:17.644Z,99036.23
2019-01-29T01:27:46.039Z,99043.36
2019-01-29T01:30:17.184Z,99044.60
2019-01-29T01:32:46.151Z,99043.38
2019-01-29T01:35:15.481Z,99042.10
2019-01-29T01:37:43.941Z,99057.61
2019-01-29T01:40:15.603Z,99056.37
2019-01-29T01:42:44.050Z,99050.06
2019-01-29T01:45:12.793Z,99063.52
2019-01-29T01:47:41.233Z,99067.27
2019-01-29T01:50:14.796Z,99067.27
2019-01-29T01:52:43.327Z,99067.70
2019-01-29T01:55:17.205Z,99068.11
2019-01-29T01:57:45.619Z,99077.35
2019-01-29T02:00:16.993Z,99076.94
2019-01-29T02:02:45.573Z,99077.78
2019-01-29T02:05:14.106Z,99079.03
2019-01-29T02:07:42.595Z,99078.19
2019-01-29T02:10:14.115Z,99084.48
2019-01-29T02:12:42.523Z,99085.73
2019-01-29T02:15:12.010Z,99087.86
2019-01-29T02:17:40.463Z,99092.47
2019-01-29T02:20:11.770Z,99096.66
2019-01-29T02:22:40.290Z,99092.45
2019-01-29T02:25:08.857Z,99096.66
2019-01-29T02:27:37.273Z,99099.17
2019-01-29T02:30:11.481Z,99095.84
2019-01-29T02:32:39.975Z,99103.37
2019-01-29T02:35:08.555Z,99104.64
2019-01-29T02:37:36.990Z,99109.67
2019-01-29T02:40:26.510Z,99106.31
2019-01-29T02:42:54.925Z,99108.02
2019-01-29T02:45:24.064Z,99118.50
2019-01-29T02:47:52.494Z,99114.31
2019-01-29T02:50:21.126Z,99125.64
2019-01-29T02:52:49.540Z,99123.13
2019-01-29T02:55:18.038Z,99127.33
2019-01-29T02:57:46.503Z,99123.96
2019-01-29T03:00:17.868Z,99133.19
2019-01-29T03:02:46.294Z,99128.58
2019-01-29T03:05:16.378Z,99135.71
2019-01-29T03:07:45.046Z,99140.75
2019-01-29T03:10:19.667Z,99138.64
2019-01-29T03:12:49.418Z,99137.41
2019-01-29T03:15:20.691Z,99144.53
2019-01-29T03:17:49.214Z,99144.97
2019-01-29T03:20:18.070Z,99153.34
2019-01-29T03:22:46.502Z,99145.80
2019-01-29T03:25:14.998Z,99152.92
2019-01-29T03:27:43.425Z,99148.30
2019-01-29T03:30:22.333Z,99163.83
2019-01-29T03:32:50.743Z,99162.58
2019-01-29T03:35:19.318Z,99164.25
2019-01-29T03:37:47.841Z,99169.30
2019-01-29T03:40:19.364Z,99168.88
2019-01-29T03:42:47.808Z,99168.45
2019-01-29T03:45:17.057Z,99168.45
2019-01-29T03:47:45.635Z,99171.41
2019-01-29T03:50:19.882Z,99186.52
2019-01-29T03:52:48.361Z,99190.73
2019-01-29T03:55:16.907Z,99188.62
2019-01-29T03:57:45.375Z,99187.80
2019-01-29T04:00:16.842Z,99199.11
2019-01-29T04:02:45.460Z,99207.09
2019-01-29T04:05:14.026Z,99203.72
2019-01-29T04:07:42.439Z,99208.77
2019-01-29T04:10:16.297Z,99212.12
2019-01-29T04:12:46.185Z,99214.23
2019-01-29T04:15:17.177Z,99225.16
2019-01-29T04:17:46.371Z,99225.98
2019-01-29T04:20:21.155Z,99223.91
2019-01-29T04:22:49.604Z,99228.09
2019-01-29T04:25:18.186Z,99228.92
2019-01-29T04:27:46.710Z,99231.87
2019-01-29T04:30:17.643Z,99239.44
2019-01-29T04:32:46.128Z,99241.97
2019-01-29T04:35:14.678Z,99237.77
2019-01-29T04:37:43.136Z,99238.18
2019-01-29T04:40:16.885Z,99242.80
2019-01-29T04:42:45.431Z,99252.42
2019-01-29T04:45:15.785Z,99259.56
2019-01-29T04:47:44.290Z,99253.28
2019-01-29T04:50:20.841Z,99254.55
2019-01-29T04:52:49.314Z,99253.30
2019-01-29T04:55:19.343Z,99250.34
2019-01-29T04:57:47.892Z,99254.98
2019-01-29T05:00:21.846Z,99248.67
2019-01-29T05:02:50.427Z,99250.36
2019-01-29T05:05:20.100Z,99248.66
2019-01-29T05:07:48.596Z,99256.62
2019-01-29T05:10:19.323Z,99258.31
2019-01-29T05:12:47.718Z,99256.62
2019-01-29T05:15:18.560Z,99257.47
2019-01-29T05:17:46.944Z,99259.14
2019-01-29T05:20:17.741Z,99265.03
2019-01-29T05:22:46.271Z,99260.41
2019-01-29T05:25:15.364Z,99268.38
2019-01-29T05:27:43.819Z,99267.11
2019-01-29T05:30:15.186Z,99274.67
2019-01-29T05:32:43.605Z,99274.70
2019-01-29T05:35:12.222Z,99272.17
2019-01-29T05:37:40.708Z,99271.73
2019-01-29T05:40:12.668Z,99267.53
2019-01-29T05:42:41.177Z,99273.00
2019-01-29T05:45:15.413Z,99270.48
2019-01-29T05:47:43.843Z,99270.07
2019-01-29T05:50:14.823Z,99276.77
2019-01-29T05:52:43.387Z,99272.58
2019-01-29T05:55:13.759Z,99275.08
2019-01-29T05:57:42.360Z,99276.78
2019-01-29T06:00:14.050Z,99277.18
2019-01-29T06:02:42.472Z,99278.01
2019-01-29T06:05:11.860Z,99283.89
2019-01-29T06:07:40.313Z,99289.78
2019-01-29T06:10:12.069Z,99285.16
2019-01-29T06:12:40.486Z,99286.02
2019-01-29T06:15:11.941Z,99287.27
2019-01-29T06:17:40.357Z,99292.30
2019-01-29T06:20:11.825Z,99298.99
2019-01-29T06:22:40.270Z,99294.38
2019-01-29T06:25:08.850Z,99291.86
2019-01-29T06:27:37.307Z,99290.17
2019-01-29T06:30:11.489Z,99291.00
2019-01-29T06:32:39.890Z,99299.37
2019-01-29T06:35:13.596Z,99296.85
2019-01-29T06:37:42.419Z,99301.45
2019-01-29T06:40:14.081Z,99303.98
2019-01-29T06:42:42.574Z,99302.30
2019-01-29T06:45:14.272Z,99301.02
2019-01-29T06:47:42.828Z,99305.61
2019-01-29T06:50:14.307Z,99308.55
2019-01-29T06:52:42.757Z,99309.39
2019-01-29T06:55:14.360Z,99319.90
2019-01-29T06:57:42.787Z,99319.02
2019-01-29T07:00:14.358Z,99332.04
2019-01-29T07:02:43.639Z,99328.69
2019-01-29T07:05:12.590Z,99329.12
2019-01-29T07:07:41.034Z,99334.19
2019-01-29T07:10:12.920Z,99338.41
2019-01-29T07:12:41.347Z,99340.07
2019-01-29T07:15:14.923Z,99343.44
2019-01-29T07:17:45.231Z,99351.81
2019-01-29T07:20:14.142Z,99348.90
2019-01-29T07:22:42.606Z,99349.33
2019-01-29T07:25:12.468Z,99348.93
2019-01-29T07:27:40.951Z,99355.23
2019-01-29T07:30:15.221Z,99357.35
2019-01-29T07:32:43.633Z,99361.96
2019-01-29T07:35:12.208Z,99360.30
2019-01-29T07:37:40.666Z,99368.72
2019-01-29T07:40:10.799Z,99360.72
2019-01-29T07:42:39.333Z,99364.53
2019-01-29T07:45:10.973Z,99365.36
2019-01-29T07:47:39.445Z,99365.78
2019-01-29T07:50:10.130Z,99364.49
2019-01-29T07:52:38.704Z,99362.02
2019-01-29T07:55:10.573Z,99364.53
2019-01-29T07:57:39.017Z,99359.06
2019-01-29T08:00:15.670Z,99359.08
2019-01-29T08:02:44.115Z,99365.36
2019-01-29T08:05:13.167Z,99365.80
2019-01-29T08:07:41.648Z,99374.30
2019-01-29T08:10:13.484Z,99376.44
2019-01-29T08:12:41.914Z,99378.16
2019-01-29T08:15:13.357Z,99378.17
2019-01-29T08:17:41.872Z,99384.48
2019-01-29T08:20:13.218Z,99386.17
2019-01-29T08:22:41.762Z,99379.84
2019-01-29T08:25:11.412Z,99385.73
2019-01-29T08:27:39.967Z,99379.45
2019-01-29T08:30:16.559Z,99389.09
2019-01-29T08:32:44.984Z,99391.22
2019-01-29T08:35:17.853Z,99393.33
2019-01-29T08:37:46.402Z,99388.69
2019-01-29T08:40:16.455Z,99388.70
2019-01-29T08:42:45.018Z,99388.69
2019-01-29T08:45:15.987Z,99395.00
2019-01-29T08:47:44.468Z,99396.66
2019-01-29T08:50:15.956Z,99400.03
2019-01-29T08:52:44.375Z,99399.20
2019-01-29T08:55:12.887Z,99399.59
2019-01-29T08:57:41.344Z,99402.86
2019-01-29T09:00:15.166Z,99406.14
2019-01-29T09:02:43.731Z,99407.59
2019-01-29T09:05:12.588Z,99416.52
2019-01-29T09:07:42.670Z,99412.28
2019-01-29T09:10:17.314Z,99415.67
2019-01-29T09:12:45.794Z,99410.39
2019-01-29T09:15:19.274Z,99417.89
2019-01-29T09:17:47.777Z,99422.13
2019-01-29T09:20:18.456Z,99421.31
2019-01-29T09:22:46.945Z,99420.74
2019-01-29T09:25:21.021Z,99425.50
2019-01-29T09:27:46.141Z,99417.95
2019-01-29T09:30:17.366Z,99420.53
2019-01-29T09:32:46.077Z,99423.72
2019-01-29T09:35:14.841Z,99423.59
2019-01-29T09:37:43.250Z,99424.28
2019-01-29T09:40:23.480Z,99420.42
2019-01-29T09:42:54.789Z,99423.63
2019-01-29T09:45:24.053Z,99412.05
2019-01-29T09:47:52.553Z,99416.81
2019-01-29T09:50:22.995Z,99413.38
2019-01-29T09:52:52.674Z,99416.94
2019-01-29T09:55:28.864Z,99421.08
2019-01-29T09:57:53.037Z,99419.98
2019-01-29T10:00:33.462Z,99423.31
2019-01-29T10:03:01.944Z,99416.64
2019-01-29T10:05:30.388Z,99423.31
2019-01-29T10:07:59.477Z,99417.06
2019-01-29T10:10:27.937Z,99416.64
2019-01-29T10:12:56.566Z,99420.06
2019-01-29T10:15:27.767Z,99413.77
2019-01-29T10:17:56.327Z,99419.69
2019-01-29T10:20:24.987Z,99420.13
2019-01-29T10:22:53.348Z,99416.76
2019-01-29T10:25:21.870Z,99413.84
2019-01-29T10:27:50.290Z,99415.49
2019-01-29T10:30:21.659Z,99423.07
2019-01-29T10:32:50.229Z,99420.14
2019-01-29T10:35:24.290Z,99413.84
2019-01-29T10:37:52.792Z,99421.42
2019-01-29T10:40:26.603Z,99412.95
2019-01-29T10:42:56.763Z,99413.86
2019-01-29T10:45:27.922Z,99417.62
2019-01-29T10:47:56.344Z,99416.34
2019-01-29T10:50:29.921Z,99407.91
2019-01-29T10:52:58.896Z,99410.01
2019-01-29T10:55:27.454Z,99405.36
2019-01-29T10:57:55.963Z,99401.55
2019-01-29T11:00:37.151Z,99403.73
2019-01-29T11:03:06.119Z,99400.75
2019-01-29T11:05:34.747Z,99404.11
2019-01-29T11:08:03.515Z,99402.85
2019-01-29T11:10:31.987Z,99399.45
2019-01-29T11:13:00.521Z,99395.69
2019-01-29T11:15:37.036Z,99392.73
2019-01-29T11:18:08.652Z,99393.98
2019-01-29T11:20:37.221Z,99391.45
2019-01-29T11:23:05.835Z,99398.64
2019-01-29T11:25:34.424Z,99386.84
2019-01-29T11:28:02.900Z,99388.12
2019-01-29T11:30:33.137Z,99391.47
2019-01-29T11:33:01.644Z,99387.23
2019-01-29T11:35:30.205Z,99387.69
2019-01-29T11:37:58.786Z,99386.80
2019-01-29T11:40:32.390Z,99381.72
2019-01-29T11:43:01.158Z,99376.29
2019-01-29T11:45:38.560Z,99382.59
2019-01-29T11:48:07.135Z,99379.17
2019-01-29T11:50:35.563Z,99376.19
2019-01-29T11:53:04.586Z,99379.98
2019-01-29T11:55:33.094Z,99375.76
2019-01-29T11:58:01.501Z,99378.63
2019-01-29T12:00:43.355Z,99371.45
2019-01-29T12:03:11.772Z,99373.54
2019-01-29T12:05:40.265Z,99372.67
2019-01-29T12:08:08.795Z,99372.24
2019-01-29T12:10:37.277Z,99367.58
2019-01-29T12:13:06.664Z,99373.01
2019-01-29T12:15:35.164Z,99368.02
2019-01-29T12:18:04.363Z,99368.02
2019-01-29T12:20:32.782Z,99368.42
2019-01-29T12:23:01.292Z,99364.32
2019-01-29T12:25:29.722Z,99362.95
2019-01-29T12:27:58.191Z,99368.48
2019-01-29T12:30:28.653Z,99361.73
2019-01-29T12:32:58.648Z,99360.43
2019-01-29T12:35:27.086Z,99367.15
2019-01-29T12:37:55.563Z,99351.97
2019-01-29T12:40:24.090Z,99368.38
2019-01-29T12:42:52.501Z,99355.77
2019-01-29T12:45:21.373Z,99360.80
2019-01-29T12:47:50.178Z,99364.25
2019-01-29T12:50:27.032Z,99360.06
2019-01-29T12:53:08.843Z,99359.63
2019-01-29T12:55:37.789Z,99354.17
2019-01-29T12:58:07.265Z,99357.53
2019-01-29T13:00:37.799Z,99352.51
2019-01-29T13:03:06.382Z,99360.09
2019-01-29T13:05:34.904Z,99358.06
2019-01-29T13:08:03.513Z,99356.39
2019-01-29T13:10:31.970Z,99355.09
2019-01-29T13:13:00.450Z,99357.25
2019-01-29T13:15:35.774Z,99351.77
2019-01-29T13:18:05.059Z,99349.23
2019-01-29T13:20:33.515Z,99353.41
2019-01-29T13:23:02.017Z,99348.78
2019-01-29T13:25:30.586Z,99345.42
2019-01-29T13:27:59.059Z,99346.73
2019-01-29T13:30:35.887Z,99343.32
2019-01-29T13:33:07.083Z,99340.39
2019-01-29T13:35:36.949Z,99340.79
2019-01-29T13:38:06.814Z,99339.53
2019-01-29T13:40:35.758Z,99344.98
2019-01-29T13:43:04.846Z,99335.73
2019-01-29T13:45:33.351Z,99337.83
2019-01-29T13:48:01.809Z,99340.39
2019-01-29T13:50:39.529Z,99341.19
2019-01-29T13:53:08.052Z,99331.94
2019-01-29T13:55:36.693Z,99338.27
2019-01-29T13:58:07.362Z,99328.58
2019-01-29T14:00:38.327Z,99330.30
2019-01-29T14:03:09.250Z,99335.80
2019-01-29T14:05:37.839Z,99327.78
2019-01-29T14:08:08.005Z,99323.59
2019-01-29T14:10:36.537Z,99326.98
2019-01-29T14:13:05.078Z,99322.72
2019-01-29T14:15:41.033Z,99323.55
2019-01-29T14:18:10.719Z,99320.59
2019-01-29T14:20:39.134Z,99325.66
2019-01-29T14:23:09.353Z,99329.45
2019-01-29T14:25:38.188Z,99323.06
2019-01-29T14:28:06.793Z,99319.30
2019-01-29T14:30:35.318Z,99321.80
2019-01-29T14:33:04.350Z,99322.66
2019-01-29T14:35:32.785Z,99315.05
2019-01-29T14:38:07.190Z,99315.44
2019-01-29T14:40:35.701Z,99315.44
2019-01-29T14:43:05.602Z,99315.87
2019-01-29T14:45:34.484Z,99317.14
2019-01-29T14:48:02.970Z,99308.72
2019-01-29T14:50:32.045Z,99307.92
2019-01-29T14:53:00.547Z,99308.36
2019-01-29T14:55:29.029Z,99312.12
2019-01-29T14:57:57.445Z,99307.49
2019-01-29T15:00:34.141Z,99304.12
2019-01-29T15:03:02.577Z,99305.39
2019-01-29T15:05:31.002Z,99310.91
2019-01-29T15:07:59.455Z,99301.23
2019-01-29T15:10:34.165Z,99300.41
2019-01-29T15:13:02.655Z,99299.97
2019-01-29T15:15:35.769Z,99298.70
2019-01-29T15:18:06.996Z,99298.31
2019-01-29T15:20:35.435Z,99293.25
2019-01-29T15:23:04.718Z,99292.05
2019-01-29T15:25:33.165Z,99289.92
2019-01-29T15:28:02.354Z,99289.92
2019-01-29T15:30:33.785Z,99286.53
2019-01-29T15:33:02.244Z,99284.87
2019-01-29T15:35:30.662Z,99286.13
2019-01-29T15:37:59.140Z,99284.00
2019-01-29T15:40:27.718Z,99281.08
2019-01-29T15:42:56.277Z,99280.65
2019-01-29T15:45:31.243Z,99273.89
2019-01-29T15:47:59.781Z,99281.51
2019-01-29T15:50:33.017Z,99281.94
2019-01-29T15:53:01.586Z,99273.95
2019-01-29T15:55:30.233Z,99273.95
2019-01-29T15:57:58.709Z,99274.39
2019-01-29T16:00:35.142Z,99273.55
2019-01-29T16:03:04.113Z,99271.03
2019-01-29T16:05:35.156Z,99266.84
2019-01-29T16:08:05.433Z,99267.67
2019-01-29T16:10:40.061Z,99266.00
2019-01-29T16:13:08.703Z,99265.20
2019-01-29T16:15:37.724Z,99268.16
2019-01-29T16:18:07.336Z,99262.30
2019-01-29T16:20:35.767Z,99271.56
2019-01-29T16:23:04.635Z,99266.95
2019-01-29T16:25:34.921Z,99264.47
2019-01-29T16:28:03.373Z,99261.11
2019-01-29T16:30:36.831Z,99263.61
2019-01-29T16:33:06.019Z,99260.68
2019-01-29T16:35:40.076Z,99263.22
2019-01-29T16:38:09.931Z,99259.84
2019-01-29T16:40:40.830Z,99259.42
2019-01-29T16:43:09.336Z,99262.77
2019-01-29T16:45:38.815Z,99259.41
2019-01-29T16:48:09.090Z,99256.91
2019-01-29T16:50:37.663Z,99255.64
2019-01-29T16:53:08.276Z,99253.13
2019-01-29T16:55:36.893Z,99247.64
2019-01-29T16:58:06.886Z,99243.86
2019-01-29T17:00:38.027Z,99247.66
2019-01-29T17:03:06.574Z,99236.30
2019-01-29T17:05:35.035Z,99243.45
2019-01-29T17:08:03.625Z,99233.77
2019-01-29T17:10:33.680Z,99232.11
2019-01-29T17:13:02.207Z,99234.63
2019-01-29T17:15:35.671Z,99230.03
2019-01-29T17:18:05.516Z,99226.68
2019-01-29T17:20:37.009Z,99221.63
2019-01-29T17:23:07.253Z,99230.03
2019-01-29T17:25:36.264Z,99227.51
2019-01-29T17:28:05.106Z,99225.41
2019-01-29T17:30:36.659Z,99228.38
2019-01-29T17:33:06.327Z,99222.87
2019-01-29T17:35:35.893Z,99214.89
2019-01-29T17:38:04.559Z,99219.10
2019-01-29T17:40:32.999Z,99215.77
2019-01-29T17:43:01.480Z,99210.31
2019-01-29T17:45:35.938Z,99211.15
2019-01-29T17:48:04.940Z,99205.23
2019-01-29T17:50:36.300Z,99203.14
2019-01-29T17:53:05.195Z,99202.33
2019-01-29T17:55:35.250Z,99196.02
2019-01-29T17:58:04.823Z,99202.77
2019-01-29T18:00:35.259Z,99192.66
2019-01-29T18:03:05.288Z,99192.68
2019-01-29T18:05:34.932Z,99193.11
2019-01-29T18:08:03.869Z,99186.01
2019-01-29T18:10:32.277Z,99185.59
2019-01-29T18:13:00.715Z,99190.64
2019-01-29T18:15:30.920Z,99193.59
2019-01-29T18:17:59.456Z,99186.05
2019-01-29T18:20:27.889Z,99192.34
2019-01-29T18:22:56.319Z,99187.74
2019-01-29T18:25:24.892Z,99186.05
2019-01-29T18:28:00.891Z,99183.13
2019-01-29T18:30:29.418Z,99182.32
2019-01-29T18:32:57.852Z,99182.73
2019-01-29T18:35:26.347Z,99177.28
2019-01-29T18:38:00.889Z,99188.64
2019-01-29T18:40:41.372Z,99182.75
2019-01-29T18:43:09.775Z,99183.59
2019-01-29T18:45:38.211Z,99184.84
2019-01-29T18:48:06.720Z,99186.55
2019-01-29T18:50:35.148Z,99188.65
2019-01-29T18:53:03.645Z,99186.11
2019-01-29T18:55:32.097Z,99183.16
2019-01-29T18:58:00.514Z,99185.69
2019-01-29T19:00:29.032Z,99178.58
2019-01-29T19:02:57.484Z,99179.81
2019-01-29T19:05:27.262Z,99184.03
2019-01-29T19:07:55.765Z,99180.63
2019-01-29T19:10:24.433Z,99181.89
2019-01-29T19:12:53.361Z,99175.20
2019-01-29T19:15:23.953Z,99178.55
2019-01-29T19:17:52.432Z,99177.28
2019-01-29T19:20:26.131Z,99176.02
2019-01-29T19:22:54.308Z,99171.41
2019-01-29T19:25:22.749Z,99171.81
2019-01-29T19:27:51.321Z,99169.31
2019-01-29T19:30:25.392Z,99167.62
2019-01-29T19:32:53.856Z,99162.99
2019-01-29T19:35:22.484Z,99160.87
2019-01-29T19:37:50.983Z,99164.25
2019-01-29T19:40:19.977Z,99165.09
2019-01-29T19:42:48.381Z,99157.94
2019-01-29T19:45:25.489Z,99154.57
2019-01-29T19:47:54.646Z,99158.77
2019-01-29T19:50:25.515Z,99156.28
2019-01-29T19:52:54.409Z,99153.33
2019-01-29T19:55:23.799Z,99154.98
2019-01-29T19:57:52.260Z,99148.29
2019-01-29T20:00:26.118Z,99151.23
2019-01-29T20:02:56.965Z,99150.39
2019-01-29T20:05:24.826Z,99149.14
2019-01-29T20:07:53.257Z,99147.44
2019-01-29T20:10:22.648Z,99149.55
2019-01-29T20:12:52.215Z,99147.86
2019-01-29T20:15:25.313Z,99142.84
2019-01-29T20:17:56.099Z,99138.63
2019-01-29T20:20:30.444Z,99135.27
2019-01-29T20:23:07.703Z,99132.31
2019-01-29T20:25:29.677Z,99131.47
2019-01-29T20:27:58.373Z,99128.98
2019-01-29T20:30:29.960Z,99122.66
2019-01-29T20:32:58.470Z,99124.77
2019-01-29T20:35:26.983Z,99122.24
2019-01-29T20:37:55.801Z,99125.19
2019-01-29T20:40:25.155Z,99123.52
2019-01-29T20:42:53.904Z,99114.27
2019-01-29T20:45:22.449Z,99121.00
2019-01-29T20:47:52.702Z,99115.10
2019-01-29T20:50:24.341Z,99108.81
2019-01-29T20:52:52.995Z,99108.83
2019-01-29T20:55:21.454Z,99106.73
2019-01-29T20:57:49.962Z,99104.18
2019-01-29T21:00:24.908Z,99105.44
2019-01-29T21:02:54.256Z,99105.44
2019-01-29T21:05:22.730Z,99103.34
2019-01-29T21:07:51.226Z,99102.48
2019-01-29T21:10:21.909Z,99090.33
2019-01-29T21:12:50.365Z,99098.30
2019-01-29T21:15:24.132Z,99093.70
2019-01-29T21:17:52.729Z,99094.51
2019-01-29T21:20:24.204Z,99092.00
2019-01-29T21:22:52.704Z,99087.82
2019-01-29T21:25:21.833Z,99082.77
2019-01-29T21:27:50.274Z,99081.53
2019-01-29T21:30:21.689Z,99081.53
2019-01-29T21:32:50.166Z,99073.16
2019-01-29T21:35:18.750Z,99078.17
2019-01-29T21:37:47.170Z,99068.52
2019-01-29T21:40:17.141Z,99065.59
2019-01-29T21:42:45.568Z,99073.57
2019-01-29T21:45:19.344Z,99071.05
2019-01-29T21:47:48.842Z,99073.96
2019-01-29T21:50:19.947Z,99078.97
2019-01-29T21:52:48.576Z,99076.03
2019-01-29T21:55:17.652Z,99070.59
2019-01-29T21:57:46.405Z,99076.84
2019-01-29T22:00:33.107Z,99077.27
2019-01-29T22:03:01.849Z,99072.25
2019-01-29T22:05:30.398Z,99069.30
2019-01-29T22:07:58.907Z,99064.70
2019-01-29T22:10:27.972Z,99058.83
2019-01-29T22:12:56.515Z,99056.74
2019-01-29T22:15:26.215Z,99054.64
2019-01-29T22:17:54.752Z,99046.67
2019-01-29T22:20:24.680Z,99045.45
2019-01-29T22:22:53.214Z,99049.17
2019-01-29T22:25:25.773Z,99041.63
2019-01-29T22:27:54.181Z,99040.78
2019-01-29T22:30:34.607Z,99036.62
2019-01-29T22:33:03.374Z,99038.27
2019-01-29T22:35:31.882Z,99032.84
2019-01-29T22:38:00.464Z,99029.08
2019-01-29T22:40:30.804Z,99029.88
2019-01-29T22:43:01.306Z,99027.38
2019-01-29T22:45:30.150Z,99022.77
2019-01-29T22:47:58.712Z,99021.52
2019-01-29T22:50:32.593Z,99021.92
2019-01-29T22:53:01.102Z,99024.43
2019-01-29T22:55:29.801Z,99020.67
2019-01-29T22:57:58.341Z,99023.59
2019-01-29T23:00:34.405Z,99024.44
2019-01-29T23:03:03.183Z,99023.58
2019-01-29T23:05:34.934Z,99016.07
2019-01-29T23:08:03.401Z,99012.28
2019-01-29T23:10:31.798Z,99011.02
2019-01-29T23:13:00.240Z,99009.74
2019-01-29T23:15:28.783Z,99001.77
2019-01-29T23:17:57.199Z,98998.47
2019-01-29T23:20:25.777Z,98998.02
2019-01-29T23:22:54.238Z,98992.59
2019-01-29T23:25:22.758Z,98987.95
2019-01-29T23:27:51.176Z,98990.05
2019-01-29T23:30:21.467Z,98988.79
2019-01-29T23:32:49.893Z,98981.25
2019-01-29T23:35:18.350Z,98974.97
2019-01-29T23:37:46.793Z,98969.53
2019-01-29T23:40:19.298Z,98968.27
2019-01-29T23:42:47.747Z,98966.19
2019-01-29T23:45:16.899Z,98965.33
2019-01-29T23:47:45.334Z,98963.67
2019-01-29T23:50:16.166Z,98962.00
2019-01-29T23:52:44.606Z,98959.06
2019-01-29T23:55:13.213Z,98955.70
2019-01-29T23:57:41.639Z,98949.84
